createdAt,value
2023-01-25T00:02:12.969Z,102082.97
2023-01-25T00:04:40.460Z,102076.38
2023-01-25T00:07:08.103Z,102075.41
2023-01-25T00:09:35.599Z,102074.63
2023-01-25T00:12:03.037Z,102074.16
2023-01-25T00:14:30.496Z,102071.38
2023-01-25T00:16:59.215Z,102071.88
2023-01-25T00:19:26.680Z,102064.66
2023-01-25T00:21:54.117Z,102061.84
2023-01-25T00:24:22.926Z,102055.56
2023-01-25T00:26:50.468Z,102055.78
2023-01-25T00:29:18.223Z,102053.66
2023-01-25T00:31:51.732Z,102042.94
2023-01-25T00:34:40.259Z,102049.47
2023-01-25T00:37:14.406Z,102043.38
2023-01-25T00:39:42.111Z,102034.84
2023-01-25T00:42:11.132Z,102036.03
2023-01-25T00:44:38.689Z,102024.50
2023-01-25T00:47:06.234Z,102021.59
2023-01-25T00:49:35.616Z,102025.88
2023-01-25T00:52:06.060Z,102024.22
2023-01-25T00:54:33.665Z,102020.50
2023-01-25T00:57:01.225Z,102026.81
2023-01-25T00:59:29.029Z,102027.19
2023-01-25T01:01:56.703Z,102028.63
2023-01-25T01:07:15.076Z,102017.50
2023-01-25T01:09:42.749Z,102017.91
2023-01-25T01:12:10.536Z,102014.56
2023-01-25T01:14:38.310Z,102016.84
2023-01-25T01:17:06.508Z,102016.59
2023-01-25T01:22:23.364Z,102015.19
2023-01-25T01:24:50.809Z,102016.22
2023-01-25T01:27:19.531Z,102016.59
2023-01-25T01:29:46.987Z,102020.19
2023-01-25T01:32:14.537Z,102026.50
2023-01-25T01:34:42.121Z,102019.84
2023-01-25T01:37:09.562Z,102017.94
2023-01-25T01:39:38.343Z,102020.09
2023-01-25T01:42:05.951Z,102016.75
2023-01-25T01:47:40.903Z,102029.94
2023-01-25T01:50:25.566Z,102028.22
2023-01-25T01:52:54.302Z,102032.03
2023-01-25T01:55:36.802Z,102030.41
2023-01-25T01:58:06.821Z,102025.97
2023-01-25T02:00:36.444Z,102021.81
2023-01-25T02:03:03.935Z,102025.31
2023-01-25T02:05:33.407Z,102024.38
2023-01-25T02:08:01.816Z,102014.91
2023-01-25T02:10:29.600Z,102017.06
2023-01-25T02:12:58.868Z,102015.72
2023-01-25T02:15:41.821Z,102013.56
2023-01-25T02:18:09.910Z,102012.13
2023-01-25T02:20:38.947Z,102008.59
2023-01-25T02:23:12.206Z,102005.31
2023-01-25T02:25:41.224Z,101993.38
2023-01-25T02:28:12.863Z,101998.09
2023-01-25T02:30:44.452Z,101977.66
2023-01-25T02:33:12.309Z,101989.97
2023-01-25T02:38:36.770Z,102005.84
2023-01-25T02:41:11.542Z,102003.09
2023-01-25T02:43:40.769Z,101991.09
2023-01-25T02:46:12.796Z,101987.16
2023-01-25T02:48:44.164Z,101995.00
2023-01-25T02:51:12.833Z,101986.13
2023-01-25T02:53:41.438Z,101986.75
2023-01-25T02:56:10.347Z,101991.03
2023-01-25T02:58:37.882Z,101981.44
2023-01-25T03:01:05.590Z,101978.00
2023-01-25T03:03:33.054Z,101979.63
2023-01-25T03:06:00.609Z,101976.25
2023-01-25T03:08:28.403Z,101965.16
2023-01-25T03:10:57.913Z,101960.50
2023-01-25T03:16:31.900Z,101953.91
2023-01-25T03:19:00.777Z,101948.22
2023-01-25T03:21:28.945Z,101939.00
2023-01-25T03:23:57.913Z,101950.69
2023-01-25T03:26:27.409Z,101942.56
2023-01-25T03:32:17.468Z,101931.75
2023-01-25T03:34:44.998Z,101924.66
2023-01-25T03:37:12.602Z,101915.50
2023-01-25T03:39:41.188Z,101920.25
2023-01-25T03:45:09.125Z,101903.91
2023-01-25T03:47:38.216Z,101910.69
2023-01-25T03:50:08.730Z,101913.19
2023-01-25T03:52:40.571Z,101903.13
2023-01-25T03:58:01.050Z,101900.94
2023-01-25T04:00:28.747Z,101900.94
2023-01-25T04:03:01.923Z,101902.44
2023-01-25T04:05:30.417Z,101893.03
2023-01-25T04:07:58.356Z,101894.47
2023-01-25T04:10:34.230Z,101884.41
2023-01-25T04:13:01.745Z,101888.47
2023-01-25T04:18:33.546Z,101884.72
2023-01-25T04:21:01.228Z,101884.75
2023-01-25T04:23:28.838Z,101883.25
2023-01-25T04:25:57.171Z,101876.53
2023-01-25T04:28:24.985Z,101884.19
2023-01-25T04:30:52.777Z,101884.16
2023-01-25T04:33:20.702Z,101882.06
2023-01-25T04:35:49.562Z,101878.47
2023-01-25T04:41:16.978Z,101880.47
2023-01-25T04:43:45.677Z,101876.66
2023-01-25T04:48:54.486Z,101872.16
2023-01-25T04:51:23.395Z,101868.81
2023-01-25T04:53:51.926Z,101872.59
2023-01-25T04:56:19.617Z,101870.75
2023-01-25T04:58:55.977Z,101868.97
2023-01-25T05:01:23.518Z,101870.25
2023-01-25T05:03:52.398Z,101867.22
2023-01-25T05:06:37.242Z,101862.91
2023-01-25T05:09:04.943Z,101860.09
2023-01-25T05:11:34.798Z,101859.53
2023-01-25T05:14:11.989Z,101863.22
2023-01-25T05:16:39.479Z,101862.94
2023-01-25T05:19:09.714Z,101858.84
2023-01-25T05:22:00.905Z,101861.94
2023-01-25T05:24:34.350Z,101864.16
2023-01-25T05:27:04.779Z,101865.56
2023-01-25T05:29:52.434Z,101856.41
2023-01-25T05:32:24.086Z,101860.59
2023-01-25T05:34:52.042Z,101861.41
2023-01-25T05:37:22.398Z,101853.66
2023-01-25T05:40:04.913Z,101857.91
2023-01-25T05:42:38.221Z,101852.66
2023-01-25T05:45:11.372Z,101859.63
2023-01-25T05:47:40.569Z,101856.34
2023-01-25T05:50:09.650Z,101852.03
2023-01-25T05:52:54.219Z,101851.97
2023-01-25T05:58:32.912Z,101853.59
2023-01-25T06:01:01.899Z,101844.75
2023-01-25T06:03:39.123Z,101845.25
2023-01-25T06:06:07.139Z,101841.09
2023-01-25T06:08:37.085Z,101840.09
2023-01-25T06:11:08.247Z,101837.06
2023-01-25T06:13:36.164Z,101834.19
2023-01-25T06:16:03.720Z,101838.19
2023-01-25T06:18:51.606Z,101834.81
2023-01-25T06:21:32.823Z,101831.38
2023-01-25T06:24:01.780Z,101830.19
2023-01-25T06:26:29.830Z,101836.91
2023-01-25T06:28:57.334Z,101830.63
2023-01-25T06:34:36.995Z,101831.91
2023-01-25T06:37:04.541Z,101839.47
2023-01-25T06:42:24.716Z,101842.13
2023-01-25T06:44:52.142Z,101843.13
2023-01-25T06:47:19.595Z,101847.28
2023-01-25T06:49:47.058Z,101841.19
2023-01-25T06:52:14.518Z,101841.56
2023-01-25T06:54:42.043Z,101845.00
2023-01-25T06:57:10.277Z,101843.03
2023-01-25T06:59:40.346Z,101839.81
2023-01-25T07:02:07.846Z,101838.69
2023-01-25T07:04:35.723Z,101850.25
2023-01-25T07:07:03.201Z,101840.97
2023-01-25T07:09:30.663Z,101843.16
2023-01-25T07:14:52.436Z,101834.84
2023-01-25T07:17:19.831Z,101829.31
2023-01-25T07:19:47.874Z,101827.38
2023-01-25T07:22:15.314Z,101832.13
2023-01-25T07:24:43.184Z,101832.13
2023-01-25T07:27:10.652Z,101833.22
2023-01-25T07:29:38.084Z,101827.31
2023-01-25T07:32:07.073Z,101834.63
2023-01-25T07:34:34.494Z,101831.00
2023-01-25T07:37:01.919Z,101830.84
2023-01-25T07:39:29.318Z,101830.06
2023-01-25T07:41:56.789Z,101821.34
2023-01-25T07:44:30.482Z,101826.38
2023-01-25T07:47:10.475Z,101827.09
2023-01-25T07:49:37.988Z,101823.41
2023-01-25T07:54:53.942Z,101817.00
2023-01-25T07:57:21.401Z,101812.81
2023-01-25T07:59:49.741Z,101811.69
2023-01-25T08:02:18.494Z,101814.75
2023-01-25T08:07:33.965Z,101809.16
2023-01-25T08:10:01.395Z,101806.00
2023-01-25T08:12:28.884Z,101809.59
2023-01-25T08:14:56.423Z,101814.16
2023-01-25T08:17:31.292Z,101807.94
2023-01-25T08:19:58.969Z,101814.06
2023-01-25T08:22:26.477Z,101808.53
2023-01-25T08:24:53.904Z,101804.44
2023-01-25T08:27:21.496Z,101802.53
2023-01-25T08:29:50.368Z,101805.72
2023-01-25T08:32:18.000Z,101798.59
2023-01-25T08:34:46.778Z,101804.41
2023-01-25T08:37:14.302Z,101798.97
2023-01-25T08:39:41.794Z,101796.47
2023-01-25T08:42:09.267Z,101790.28
2023-01-25T08:44:36.915Z,101784.66
2023-01-25T08:47:04.383Z,101785.66
2023-01-25T08:49:34.630Z,101788.00
2023-01-25T08:52:03.520Z,101785.06
2023-01-25T08:54:31.380Z,101790.22
2023-01-25T08:56:58.875Z,101787.63
2023-01-25T08:59:26.607Z,101772.50
2023-01-25T09:01:54.063Z,101775.19
2023-01-25T09:07:21.535Z,101775.81
2023-01-25T09:09:48.989Z,101771.41
2023-01-25T09:12:16.439Z,101773.22
2023-01-25T09:14:43.867Z,101770.72
2023-01-25T09:17:11.286Z,101773.25
2023-01-25T09:22:42.341Z,101769.78
2023-01-25T09:25:10.033Z,101768.47
2023-01-25T09:27:37.495Z,101767.13
2023-01-25T09:30:10.864Z,101767.34
2023-01-25T09:35:31.035Z,101753.03
2023-01-25T09:37:59.821Z,101756.03
2023-01-25T09:40:28.551Z,101745.75
2023-01-25T09:43:00.497Z,101740.97
2023-01-25T09:48:32.818Z,101744.59
2023-01-25T09:51:20.204Z,101736.59
2023-01-25T09:56:42.433Z,101728.44
2023-01-25T09:59:14.649Z,101724.63
2023-01-25T10:01:45.774Z,101727.78
2023-01-25T10:04:16.057Z,101735.69
2023-01-25T10:06:59.791Z,101730.03
2023-01-25T10:09:37.192Z,101724.50
2023-01-25T10:12:13.008Z,101719.78
2023-01-25T10:14:40.443Z,101718.31
2023-01-25T10:17:12.304Z,101722.06
2023-01-25T10:19:48.800Z,101721.63
2023-01-25T10:22:18.393Z,101718.34
2023-01-25T10:25:03.006Z,101708.06
2023-01-25T10:27:38.213Z,101700.59
2023-01-25T10:30:23.068Z,101703.38
2023-01-25T10:32:56.182Z,101697.03
2023-01-25T10:35:35.459Z,101693.81
2023-01-25T10:38:06.416Z,101689.25
2023-01-25T10:40:40.949Z,101684.59
2023-01-25T10:43:17.299Z,101683.84
2023-01-25T10:45:45.322Z,101683.25
2023-01-25T10:48:16.322Z,101678.94
2023-01-25T10:50:47.177Z,101678.78
2023-01-25T10:53:24.799Z,101671.28
2023-01-25T10:59:20.123Z,101665.97
2023-01-25T11:01:47.604Z,101655.53
2023-01-25T11:04:45.415Z,101654.69
2023-01-25T11:07:27.629Z,101655.31
2023-01-25T11:09:55.215Z,101647.81
2023-01-25T11:15:26.671Z,101627.66
2023-01-25T11:18:05.953Z,101623.19
2023-01-25T11:20:33.429Z,101626.50
2023-01-25T11:23:01.050Z,101611.13
2023-01-25T11:28:31.072Z,101615.34
2023-01-25T11:30:59.957Z,101615.84
2023-01-25T11:33:27.893Z,101610.75
2023-01-25T11:36:07.621Z,101606.84
2023-01-25T11:41:46.760Z,101595.06
2023-01-25T11:44:32.338Z,101589.56
2023-01-25T11:47:10.107Z,101585.72
2023-01-25T11:49:46.632Z,101571.47
2023-01-25T11:52:24.595Z,101569.41
2023-01-25T11:55:03.558Z,101565.56
2023-01-25T12:00:31.351Z,101546.00
2023-01-25T12:03:39.483Z,101535.44
2023-01-25T12:06:13.570Z,101525.03
2023-01-25T12:08:56.189Z,101521.72
2023-01-25T12:11:35.863Z,101527.50
2023-01-25T12:14:10.728Z,101520.41
2023-01-25T12:16:54.135Z,101522.88
2023-01-25T12:19:40.233Z,101514.94
2023-01-25T12:22:35.643Z,101514.34
2023-01-25T12:25:10.869Z,101508.66
2023-01-25T12:27:48.123Z,101509.41
2023-01-25T12:33:14.004Z,101488.44
2023-01-25T12:35:47.820Z,101474.72
2023-01-25T12:38:20.186Z,101464.75
2023-01-25T12:40:50.647Z,101468.59
2023-01-25T12:43:22.992Z,101466.28
2023-01-25T12:45:51.470Z,101455.50
2023-01-25T12:48:22.051Z,101440.84
2023-01-25T12:50:53.913Z,101440.22
2023-01-25T12:53:23.800Z,101436.69
2023-01-25T12:55:52.011Z,101420.09
2023-01-25T12:58:37.107Z,101417.06
2023-01-25T13:01:34.421Z,101419.31
2023-01-25T13:04:11.657Z,101414.06
2023-01-25T13:06:47.119Z,101402.94
2023-01-25T13:09:17.330Z,101399.16
2023-01-25T13:11:46.169Z,101387.06
2023-01-25T13:14:23.721Z,101386.69
2023-01-25T13:17:08.547Z,101390.88
2023-01-25T13:19:42.817Z,101393.03
2023-01-25T13:22:12.892Z,101386.69
2023-01-25T13:25:09.176Z,101377.78
2023-01-25T13:27:36.859Z,101368.97
2023-01-25T13:30:29.557Z,101368.69
2023-01-25T13:33:07.409Z,101368.38
2023-01-25T13:35:37.346Z,101363.84
2023-01-25T13:41:17.662Z,101357.16
2023-01-25T13:43:48.080Z,101355.47
2023-01-25T13:46:18.726Z,101351.75
2023-01-25T13:48:50.404Z,101354.38
2023-01-25T13:51:19.509Z,101341.13
2023-01-25T13:53:57.240Z,101333.75
2023-01-25T13:56:29.706Z,101337.69
2023-01-25T13:58:57.232Z,101331.84
2023-01-25T14:01:24.722Z,101331.84
2023-01-25T14:03:54.950Z,101329.69
2023-01-25T14:06:25.169Z,101332.03
2023-01-25T14:11:55.300Z,101316.22
2023-01-25T14:14:26.598Z,101319.63
2023-01-25T14:19:40.373Z,101313.84
2023-01-25T14:22:29.714Z,101315.44
2023-01-25T14:25:07.443Z,101318.06
2023-01-25T14:27:36.959Z,101327.28
2023-01-25T14:30:19.594Z,101324.00
2023-01-25T14:32:47.206Z,101323.25
2023-01-25T14:35:55.193Z,101319.25
2023-01-25T14:38:24.625Z,101326.25
2023-01-25T14:40:54.656Z,101335.63
2023-01-25T14:43:54.907Z,101326.50
2023-01-25T14:46:34.030Z,101323.59
2023-01-25T14:52:06.553Z,101322.41
2023-01-25T14:54:36.255Z,101314.63
2023-01-25T14:57:05.000Z,101319.16
2023-01-25T14:59:35.329Z,101307.66
2023-01-25T15:05:14.513Z,101294.28
2023-01-25T15:10:53.745Z,101292.81
2023-01-25T15:13:23.529Z,101300.97
2023-01-25T15:15:53.039Z,101295.22
2023-01-25T15:18:41.719Z,101289.59
2023-01-25T15:21:11.194Z,101293.59
2023-01-25T15:24:28.991Z,101276.34
2023-01-25T15:26:56.781Z,101274.75
2023-01-25T15:29:26.835Z,101273.13
2023-01-25T15:34:57.067Z,101277.59
2023-01-25T15:37:25.921Z,101279.03
2023-01-25T15:39:53.404Z,101265.47
2023-01-25T15:42:21.025Z,101268.88
2023-01-25T15:47:46.475Z,101267.06
2023-01-25T15:53:17.736Z,101251.84
2023-01-25T15:55:46.426Z,101252.53
2023-01-25T15:58:17.163Z,101245.88
2023-01-25T16:00:44.693Z,101243.38
2023-01-25T16:03:12.897Z,101248.81
2023-01-25T16:05:40.335Z,101248.63
2023-01-25T16:08:07.979Z,101243.06
2023-01-25T16:10:36.739Z,101253.59
2023-01-25T16:13:04.354Z,101253.69
2023-01-25T16:15:31.807Z,101263.84
2023-01-25T16:17:59.267Z,101256.38
2023-01-25T16:20:26.746Z,101245.56
2023-01-25T16:22:54.198Z,101246.47
2023-01-25T16:25:21.891Z,101249.38
2023-01-25T16:27:50.747Z,101242.69
2023-01-25T16:30:23.518Z,101241.47
2023-01-25T16:32:52.418Z,101236.88
2023-01-25T16:37:50.764Z,101225.13
2023-01-25T16:43:08.321Z,101225.44
2023-01-25T16:45:35.779Z,101221.38
2023-01-25T16:48:03.245Z,101212.31
2023-01-25T16:50:54.635Z,101215.50
2023-01-25T16:53:22.060Z,101211.19
2023-01-25T16:55:49.758Z,101214.38
2023-01-25T16:58:18.508Z,101205.94
2023-01-25T17:03:49.038Z,101207.94
2023-01-25T17:06:18.889Z,101212.78
2023-01-25T17:08:49.851Z,101208.44
2023-01-25T17:11:24.678Z,101205.19
2023-01-25T17:13:54.957Z,101203.91
2023-01-25T17:16:23.836Z,101190.41
2023-01-25T17:18:54.658Z,101201.84
2023-01-25T17:21:22.513Z,101192.44
2023-01-25T17:23:50.128Z,101199.53
2023-01-25T17:26:19.560Z,101188.19
2023-01-25T17:28:47.374Z,101180.94
2023-01-25T17:31:18.035Z,101175.56
2023-01-25T17:33:45.859Z,101171.66
2023-01-25T17:36:15.219Z,101169.84
2023-01-25T17:38:43.261Z,101168.09
2023-01-25T17:41:12.964Z,101170.00
2023-01-25T17:43:40.458Z,101168.63
2023-01-25T17:49:09.455Z,101171.50
2023-01-25T17:51:37.097Z,101178.22
2023-01-25T17:54:05.630Z,101169.91
2023-01-25T17:59:22.112Z,101184.16
2023-01-25T18:01:50.404Z,101186.06
2023-01-25T18:04:20.299Z,101189.00
2023-01-25T18:06:47.746Z,101189.13
2023-01-25T18:09:15.358Z,101184.75
2023-01-25T18:11:42.807Z,101197.47
2023-01-25T18:14:12.507Z,101184.13
2023-01-25T18:16:41.165Z,101181.66
2023-01-25T18:21:58.335Z,101164.94
2023-01-25T18:24:36.859Z,101160.00
2023-01-25T18:27:06.867Z,101162.06
2023-01-25T18:29:50.237Z,101153.84
2023-01-25T18:35:16.039Z,101140.09
2023-01-25T18:37:46.391Z,101137.78
2023-01-25T18:40:15.491Z,101142.06
2023-01-25T18:42:43.855Z,101136.78
2023-01-25T18:45:11.860Z,101136.34
2023-01-25T18:47:39.683Z,101142.66
2023-01-25T18:50:09.042Z,101135.16
2023-01-25T18:52:36.698Z,101140.22
2023-01-25T18:55:05.917Z,101121.59
2023-01-25T18:57:33.367Z,101122.63
2023-01-25T19:00:00.842Z,101107.13
2023-01-25T19:05:19.868Z,101108.31
2023-01-25T19:07:47.306Z,101111.69
2023-01-25T19:10:16.290Z,101106.00
2023-01-25T19:12:43.754Z,101101.63
2023-01-25T19:15:12.211Z,101093.47
2023-01-25T19:17:39.679Z,101084.66
2023-01-25T19:20:07.903Z,101093.22
2023-01-25T19:22:35.352Z,101095.66
2023-01-25T19:25:02.848Z,101089.28
2023-01-25T19:27:31.669Z,101079.97
2023-01-25T19:29:59.121Z,101080.50
2023-01-25T19:32:26.532Z,101070.69
2023-01-25T19:34:53.930Z,101065.75
2023-01-25T19:37:21.445Z,101074.66
2023-01-25T19:39:49.005Z,101064.28
2023-01-25T19:42:18.573Z,101061.56
2023-01-25T19:44:47.695Z,101054.22
2023-01-25T19:47:17.736Z,101052.78
2023-01-25T19:49:45.149Z,101049.34
2023-01-25T19:52:12.854Z,101053.31
2023-01-25T19:54:40.327Z,101047.22
2023-01-25T20:00:08.775Z,101042.88
2023-01-25T20:02:36.295Z,101041.31
2023-01-25T20:05:03.866Z,101043.25
2023-01-25T20:07:32.290Z,101037.41
2023-01-25T20:09:59.720Z,101036.03
2023-01-25T20:12:27.172Z,101039.81
2023-01-25T20:14:54.620Z,101031.66
2023-01-25T20:17:23.698Z,101025.88
2023-01-25T20:19:51.387Z,101022.44
2023-01-25T20:22:18.842Z,101019.88
2023-01-25T20:27:45.094Z,101014.06
2023-01-25T20:30:13.014Z,101004.75
2023-01-25T20:32:41.747Z,101005.72
2023-01-25T20:35:10.261Z,101002.22
2023-01-25T20:37:37.849Z,101002.34
2023-01-25T20:40:08.193Z,100996.50
2023-01-25T20:42:35.664Z,101012.44
2023-01-25T20:45:03.121Z,101018.56
2023-01-25T20:47:30.615Z,101011.47
2023-01-25T20:49:59.465Z,101005.53
2023-01-25T20:52:26.890Z,101009.63
2023-01-25T20:54:54.593Z,101006.22
2023-01-25T20:57:22.063Z,101002.84
2023-01-25T20:59:49.492Z,101006.28
2023-01-25T21:02:17.042Z,101007.81
2023-01-25T21:04:44.515Z,101006.03
2023-01-25T21:07:13.365Z,100997.25
2023-01-25T21:09:42.845Z,100996.13
2023-01-25T21:15:17.361Z,101007.84
2023-01-25T21:17:44.809Z,101008.81
2023-01-25T21:20:12.506Z,101002.78
2023-01-25T21:22:41.244Z,100997.50
2023-01-25T21:25:09.743Z,100991.22
2023-01-25T21:27:37.365Z,100989.78
2023-01-25T21:30:05.451Z,100986.38
2023-01-25T21:35:12.242Z,100982.81
2023-01-25T21:37:39.907Z,100980.75
2023-01-25T21:40:08.897Z,100981.28
2023-01-25T21:42:36.313Z,100986.75
2023-01-25T21:45:26.878Z,100980.22
2023-01-25T21:47:58.841Z,100979.97
2023-01-25T21:50:45.489Z,100979.28
2023-01-25T21:53:12.914Z,100978.47
2023-01-25T21:55:40.369Z,100981.22
2023-01-25T21:58:07.806Z,100975.06
2023-01-25T22:00:35.854Z,100983.03
2023-01-25T22:03:03.381Z,100979.81
2023-01-25T22:05:32.123Z,100992.34
2023-01-25T22:08:23.510Z,100983.00
2023-01-25T22:10:50.932Z,100982.28
2023-01-25T22:16:08.561Z,100989.66
2023-01-25T22:18:37.567Z,100989.25
2023-01-25T22:21:08.175Z,100992.28
2023-01-25T22:23:35.726Z,100990.88
2023-01-25T22:26:04.712Z,100992.03
2023-01-25T22:28:34.633Z,100992.56
2023-01-25T22:31:02.185Z,100988.50
2023-01-25T22:33:29.622Z,100974.06
2023-01-25T22:35:57.073Z,100980.59
2023-01-25T22:38:25.961Z,100968.53
2023-01-25T22:40:55.776Z,100961.47
2023-01-25T22:43:23.875Z,100975.31
2023-01-25T22:45:52.555Z,100979.38
2023-01-25T22:48:20.537Z,100973.56
2023-01-25T22:50:47.991Z,100966.63
2023-01-25T22:53:15.549Z,100952.81
2023-01-25T22:55:44.317Z,100945.97
2023-01-25T22:58:12.013Z,100940.38
2023-01-25T23:00:39.417Z,100937.72
2023-01-25T23:03:06.994Z,100937.56
2023-01-25T23:05:34.559Z,100950.97
2023-01-25T23:08:02.048Z,100941.19
2023-01-25T23:10:29.704Z,100932.94
2023-01-25T23:12:58.471Z,100935.91
2023-01-25T23:15:26.017Z,100928.06
2023-01-25T23:18:11.154Z,100924.97
2023-01-25T23:20:38.810Z,100914.44
2023-01-25T23:23:06.192Z,100917.59
2023-01-25T23:25:33.857Z,100908.13
2023-01-25T23:28:02.605Z,100903.25
2023-01-25T23:30:30.174Z,100888.44
2023-01-25T23:32:58.436Z,100892.91
2023-01-25T23:35:27.460Z,100889.56
2023-01-25T23:40:43.770Z,100889.44
2023-01-25T23:43:12.520Z,100888.53
2023-01-25T23:45:39.963Z,100878.41
2023-01-25T23:48:07.590Z,100883.22
2023-01-25T23:50:35.026Z,100875.47
2023-01-25T23:53:02.413Z,100877.47
2023-01-25T23:55:29.846Z,100869.63
2023-01-25T23:57:57.263Z,100872.75
